Saturday, May 28, 2016
13:42 UTC
  |  Log In   |  Register Free
Airport Search:

Madison Airport
(KI39)

Madison Airport Diagram
No Airport Diagram Available

FAA data valid effective Mar 31 2016 - May 26 2016 (unless otherwise noted).

 
 
 
 
 
 
 
 
 
 
 
 
 
 
Current Aviation Weather for KI39

Weather Summary


The most recent METAR observation for I39 was updated at: 12:55 UTC
METAR for KI39 is not available. Closest METAR is for KDVK
KI39  (most recent observation was updatred at 28:13 UTC)
281315Z AUTO 19005KT 10SM BKN070 OVC090 23/17 A3013 RMK AO2

KDVK  (21.0 nm NE)   (most recent observation was updated at 28:13 UTC)
281335Z AUTO 21009KT 10SM SCT075 24/18 A3014 RMK AO2

KLEX  (27.6 nm SE)   (most recent observation was updated at 28:12 UTC)
281254Z 18008KT 10SM BKN065 23/18 A3011 RMK AO2 SLP186 T02330183

TAF for KI39 is not available.
KLEX  (27.6 nm SE)   (most recent observation was updatred at 28:11 UTC)
281128Z 2812/2912 19008KT P6SM BKN130 FM281700 22009KT P6SM VCSH BKN060 FM290000 16003KT P6SM SCT200


GlobalAir.com is loading additional information.
 Current Weather at I39
70.0 F° (21.0 C°)

South winds at 3.5 mph
Pressure:
30.10 in
Humidity:
78%
Wind:
South at 3.5 mph
Dew Point:
62.6 F° (17.0 C°)
Visibility:
10.00 mi
I39 NOAA Radar




Find All Airport Services Find A Hotel Find A Rental Car Find A Golf Course Find A Restaurant $100 Hamburger



Airport Weather Forecast for KI39

Translated METAR for KI39 (1315 UTC)
METAR:
KI39 281315Z AUTO 19005KT 10SM BKN070 OVC090 23/17 A3013 RMK AO2
Conditions at:
KI39 (Madison, KY) observed 1315 UTC 28 May 2016
Temperature:
23°C (73.4°F)
Dewpoint:
17°C (62.6°F) [RH = 69]
Pressure:
30.13 inches Hg (1020.3 mb)
Winds:
from the S (190 degrees) at 5.8 mph (5 knots: 2.6 m/s)
Visibility:
10 mile(s)
Ceiling:
7,000 feet AGL
Clouds:
Broken Cloud Cover at 7,000 feet AGL
Overcast Skies at 9,000 feet AGL
Remarks:
site is un-manned

Translated TAF for KLEX (Blue Grass, KY) (1128 UTC)
TAF text:
KLEX 281128Z 2812/2912 19008KT P6SM BKN130
Forecast period:
Saturday May 28 2016 12:00 UTC - Sunday May 29 2016 12:00 UTC
Forecast type:
FROM: standard forecast or significant change
Winds:
from the S (190 degrees) at 9.2 mph (8 knots: 4.1 m/s)
Visibility:
6 or more mile(s) (9.7+ km)
Ceiling:
13,000 feet AGL
Clouds:
Broken Cloud Cover at 13,000 feet AGL
Weather:
no significant weather observed at this time
TAF text:
FM281700 22009KT P6SM VCSH BKN060
Forecast period:
Saturday May 28 2016 17:00 UTC - Sunday May 29 2016 00:00 UTC
Forecast type:
FROM: standard forecast or significant change
Winds:
from the SW (220 degrees) at 10.4 mph (9 knots: 4.6 m/s)
Visibility:
6 or more mile(s) (9.7+ km)
Ceiling:
6,000 feet AGL
Clouds:
Broken Cloud Cover at 6,000 feet AGL
Weather:
Moderate In Vicinity Shower(s)
TAF text:
FM290000 16003KT P6SM SCT200
Forecast period:
Sunday May 29 2016 00:00 UTC - Sunday May 29 2016 12:00 UTC
Forecast type:
FROM: standard forecast or significant change
Winds:
from the SSE (160 degrees) at 3.5 mph (3 knots: 1.5 m/s)
Visibility:
6 or more mile(s) (9.7+ km)
Ceiling:
at least 12,000 feet AGL
Clouds:
Scattered Clouds at 20,000 feet AGL
Weather:
no significant weather observed at this time
FBO's on the Field
FBO Company Facility Photos Services Transportation Aviation Fuel Prices: Prices include tax
Catering Weather Repair Courtesy Rental Type 100LL JetA JetA+ MOGAS 8087
 
Eastern Kentucky University

This FBO has not yet been rated
FS:Shell
Last Updated: May-13
Login to update fuel prices
SS:
Contact Eastern Kentucky UniversityMore FBO Information
 
Add another FBO Facility Photos Catering Weather Repair Courtesy Rental Type 100LL JetA JetA+ MOGAS 8087
Services Transportation Aviation Fuel Prices: Prices include tax


model-print
model-print
model-print
model-print